Résultats

La Ronde des Vignes
RoqueforTrail:29Km. Édition 2016.

29.5 Km
06/11/2016 à 08:30:00 - Roquefort la Bedoule (13)
228 arrivant(e)s.


 
Les autres classements de cet évènement




Place▲ Temps Dossard Nom Prenom Categ #Categ Sexe #Sexe Club Vit Moy Diplôme Partager
1 02:18:27 2398 SIMONCINI ERIC M1M 1 M 1 12.57
2 02:18:52 2350 PELLO SEBASTIEN SEM 1 M 2 ROGNAC 12.53
3 02:20:46 2066 BIGOT BENOIT SEM 2 M 3 GUTAI 12.36
4 02:27:37 2104 LANNES FRANCOIS SEM 3 M 4 SARDINES TRIATHLON 11.79
5 02:28:26 2001 MASSIMI LAURENT M1M 2 M 5 CSC 11.72
6 02:29:47 2311 GAUTHIER NICOLAS SEM 4 M 6 GAP CHAMPSAUR TRIATHLON 11.62
7 02:29:47 2107 HADJIAN STEPHANE M1M 3 M 7 CEF MARATHONIEN 11.62
8 02:31:34 2394 VETTE SERGE M2M 1 M 8 11.48
9 02:33:04 2316 IMBERN SEBASTIEN SEM 5 M 9 FOULEES AUBAGNE/ROQ TRAIL ATTITUDE 11.37
10 02:35:41 2400 BAUZIL VICTOR SEM 6 M 10 11.18
11 02:37:41 2340 MINASSIAN CHRISTOPHE SEM 7 M 11 TRAIL CLUB DE PROVENCE 11.03
12 02:38:58 2343 MOUTTE JULIEN SEM 8 M 12 10.95
13 02:39:52 2360 QUITTARD SEBASTIEN M1M 4 M 13 SARDINES TRIATHLON 10.88
14 02:41:25 2027 CAILLET JULIEN SEM 9 M 14 OLYMPIQUE CABRIES CALAS 10.78
15 02:41:35 2404 IMCERTI THIERRY M1M 5 M 15 TEAM FOULEE 10.77
16 02:42:10 2336 MARTIN LOLO M2M 2 M 16 TRAIL CLUB DES FOUS 10.73
17 02:42:10 2056 BEN-LARBI HAMID M2M 3 M 17 TRAIL CLUB DES FOUS 10.73
18 02:42:19 2082 GRODZISKI AXEL SEM 10 M 18 10.72
19 02:42:26 2045 ROBERT THOMAS M1M 6 M 19 CMA-CGM 10.71
20 02:43:20 2338 MASSE PHILIPPE M1M 7 M 20 INDIVIDUEL 10.65
21 02:44:08 2264 BASQUIN FLORENTIN SEM 11 M 21 10.60
22 02:44:21 2309 FRIGAUX MENDI SEM 12 M 22 10.59
23 02:44:28 2020 ROGIER RICHARD M1M 8 M 23 TRAIL CLUB DE PROVENCE 10.58
24 02:44:32 2280 CANZANO MARC M2M 4 M 24 SPEEDY CLUB DE PROVENCE 10.58
25 02:44:37 1147 EGALON MELANIE SEF 1 F 1 OLYMPIQUE DE MARSEILLE ATHLE 10.57
26 02:44:38 2284 CORTESE BENJAMIN SEM 13 M 25 10.57
27 02:45:38 2397 OREGGIA GERARD M2M 5 M 26 ATP 10.51
28 02:46:19 2031 DJERROU ANTOINE SEM 14 M 27 OLYMPIQUE CABRIES CALAS 10.46
29 02:46:57 2073 SEURRE THIERRY M1M 9 M 28 TRIATH'LONS 10.42
30 02:47:21 2381 SILVAGNOLI ANTHONY SEM 15 M 29 POMPIER DU BEAUSSET 10.40
31 02:47:32 2059 BARROU JULIEN SEM 16 M 30 MASSILIA TRIATHLON 10.39
32 02:47:41 2254 SPY AUDREY SEF 2 F 2 LE LIEVRE ET LA TORTUE 10.38
33 02:50:10 2312 GIANSILY ANTONY SEM 17 M 31 AMC AUBAGNE 10.23
34 02:50:15 2323 LAMBERT JEAN-CHARLES M1M 10 M 32 LAM 10.22
35 02:50:41 2385 SOULET JEAN-MICHEL M1M 11 M 33 SCO STMARGUERITE 10.19
36 02:50:57 2080 KIFFER SERGE M1M 12 M 34 GEMALTO SECTION COURSE 10.18
37 02:51:44 2375 SAUX JEAN-PHILIPPE M1M 13 M 35 MARSEILLE TRAIL CLUB 10.13
38 02:52:10 2319 KRAWEZUK SEBASTIEN M1M 14 M 36 10.11
39 02:52:20 2075 BERENGER GUILLAUME SEM 18 M 37 TRAIL CLUB DES FOUS 10.10
40 02:53:21 2362 RECEVEUR BRUNO M2M 6 M 38 10.04
41 02:53:29 2267 BERREWAERTS BERNARD M3M 1 M 39 TRAIL CLUB DE PROVENCE 10.03
42 02:53:42 2076 FERNANDEZ CLEMENT SEM 19 M 40 1988 10.02
43 02:53:46 2279 CANTONE VINCENT M1M 15 M 41 SPEEDY CLUB DE PROVENCE 10.01
44 02:53:47 2289 DECHELETTE FRANCK M1M 16 M 42 SPEEDY CLUB DE PROVENCE 10.01
45 02:53:47 2367 ROUX MARC M2M 7 M 43 SPEEDY CLUB DE PROVENCE 10.01
46 02:53:58 2314 HANNA PIERRE M2M 8 M 44 PREF'ASS 10.00
47 02:54:28 2009 BALLATORE JOHAN SEM 20 M 45 LITTORAL 9.97
48 02:54:32 2339 MAZE YANNICK M1M 17 M 46 MARSEILLE TRAIL CLUB 9.97
49 02:55:12 2153 MARTINEZ ANGE M1M 18 M 47 TRAIL CLUB DES FOUS 9.93
50 02:55:25 2029 CHAPEROT THOMAS M1M 19 M 48 OLYMPIQUE CABRIES CALAS 9.92
51 02:55:27 2044 TURZO MARC M2M 9 M 49 TONTONTRAILERS 9.92
52 02:56:04 2334 MARCELINO PIERRE-HENRY SEM 21 M 50 SARDINES TRIATHLON MARSEILLE 9.88
53 02:56:10 2005 VALENTIN UGO M1M 20 M 51 FREE TRAIL MARSEILLE 9.88
54 02:56:16 2341 MIRTAIN ANTOINE SEM 22 M 52 9.87
55 02:56:28 2376 SAYE JEAN-LOUIS M3M 2 M 53 ST AUBIN AVESNOIS 9.86
56 02:56:28 2399 POTY BERTRAND M2M 10 M 54 LES JOGGEURS AUBAGNAIS 9.86
57 02:56:35 2277 CABARDOS CHRISTIAN M1M 21 M 55 SPEEDY CLUB DE PROVENCE 9.85
58 02:56:39 2015 GONZALES JEAN-CLAUDE M1M 22 M 56 TEAM FOULEES AUBAGNE/GEM TRI ATHLE 9.85
59 02:57:06 2389 TOUSSAINT LAURENT M1M 23 M 57 9.82
60 02:57:39 2255 HAEGEL HELENE M2F 1 F 3 LE LIEVRE ET LA TORTUE 9.79
61 02:59:05 2366 ROCHE JEAN-MARIE SEM 23 M 58 9.72
62 02:59:07 2348 PELLEGRINI LIONEL SEM 24 M 59 9.71
63 03:00:16 2293 DEWIDEHEM OLIVIER M1M 24 M 60 9.65
64 03:00:39 2154 COMBAL JEAN-LUC M2M 11 M 61 CLUB COCA COLA 9.63
65 03:00:40 2155 KOCHER STEPHANE M1M 25 M 62 9.63
66 03:00:46 2355 PEYRET SEBASTIEN M1M 26 M 63 9.63
67 03:00:48 2393 VANIER YANNICK M2M 12 M 64 SPEEDY CLUB DE PROVENCE 9.62
68 03:01:16 2358 N:Anonyme 2358 P:Anonyme 2358 M2M 13 M 65 SPEEDY CLUB DE PROVENCE 9.60
69 03:01:18 2347 PAYA JEAN-REMY SEM 25 M 66 9.60
70 03:02:59 2408 SIBELLE LAURE M1F 1 F 4 OLYMPIQUE CABRIES CALAS 9.51
71 03:03:06 2002 EXPOSITO FRANCOIS SEM 26 M 67 9.50
72 03:03:31 2292 DESCAMPS LIONEL SEM 27 M 68 MJC PLAN DE CUQUES 9.48
73 03:03:32 2035 GOSMAIN VINCENT M1M 27 M 69 OLYMPIQUE CABRIES CALAS 9.48
74 03:03:37 2379 SECONDI MICKAEL M1M 28 M 70 9.48
75 03:03:40 2296 DOURTHE GREGORY SEM 28 M 71 TRAIL CLUB DE PROVENCE 9.47
76 03:04:24 2081 MILHE FREDERIC SEM 29 M 72 9.44
77 03:04:24 2004 SERVANT MICHEL M1M 29 M 73 9.44
78 03:04:25 2256 COIFFIER LAURENT M1M 30 M 74 LE LIEVRE ET LA TORTUE 9.44
79 03:04:43 2003 RASPAIL DIDIER M1M 31 M 75 AMC AUBAGNE 9.42
80 03:05:04 2295 DONADIO THIERRY SEM 30 M 76 LES FARFADETS 9.40
81 03:06:21 2274 BOULLE YVES M1M 32 M 77 9.34
82 03:06:26 2049 CAMILLIERI EMILIEN SEM 31 M 78 TRAIL CLUB DES FOUS 9.33
83 03:06:37 2306 FLAUGERE TOM SEM 32 M 79 9.32
84 03:08:08 2380 SEYBERLICH VLADISLAS SEM 33 M 80 9.25
85 03:08:33 2007 CHAYIA EMILIEN M1M 33 M 81 9.23
86 03:08:43 2271 BLATTMANN BRICE M1M 34 M 82 M. 9.22
87 03:09:04 2265 BECK RAPHAEL M1M 35 M 83 9.20
88 03:09:21 2330 LOUVIOT JAMES M2M 14 M 84 SPEEDY CLUB DE PROVENCE 9.19
89 03:09:40 2368 ROUX THOMAS M1M 36 M 85 9.17
90 03:09:40 2062 RESPAUD SEBASTIEN M1M 37 M 86 9.17
91 03:09:40 2063 SQUITIERI FABIEN M1M 38 M 87 MACADAM BASQUET 9.17
92 03:10:26 2391 TREYER MARIE M2F 2 F 5 9.14
93 03:10:29 2048 N:Anonyme 2048 P:Anonyme 2048 M3M 3 M 88 ATHLETISME SIX-FOURS 9.13
94 03:10:40 2302 FALLET MATHIEU M1M 39 M 89 9.13
95 03:10:51 2320 LABOUHEURE THOMAS SEM 34 M 90 LA CIOTAT TRIATHLON 9.12
96 03:11:08 2382 SLECZEK IGOR M2M 15 M 91 9.10
97 03:12:23 2273 BOREL JEAN-YVES M1M 40 M 92 USC SEPTEMES 9.04
98 03:12:41 2344 ORTIZ ROBERT M2M 16 M 93 AMC AUBAGNE 9.03
99 03:12:47 2263 BARON ANGE M2M 17 M 94 FDJ 9.03
100 03:12:51 2105 MAGALLON CLOE SEF 3 F 6 SARDINES TRIATHLON 9.02